createdAt,value
2022-08-01T00:00:15.038Z,101457.81
2022-08-01T00:02:41.973Z,101464.22
2022-08-01T00:05:09.789Z,101464.31
2022-08-01T00:07:37.025Z,101464.56
2022-08-01T00:10:04.664Z,101465.00
2022-08-01T00:12:31.488Z,101459.31
2022-08-01T00:14:58.292Z,101456.97
2022-08-01T00:17:26.416Z,101453.59
2022-08-01T00:19:53.454Z,101457.66
2022-08-01T00:22:20.204Z,101458.16
2022-08-01T00:24:46.975Z,101474.81
2022-08-01T00:27:13.793Z,101461.16
2022-08-01T00:30:11.506Z,101453.78
2022-08-01T00:32:30.743Z,101468.34
2022-08-01T00:34:57.502Z,101471.22
2022-08-01T00:37:24.424Z,101464.34
2022-08-01T00:39:51.184Z,101466.28
2022-08-01T00:42:18.028Z,101457.47
2022-08-01T00:44:44.814Z,101465.88
2022-08-01T00:47:11.574Z,101461.81
2022-08-01T00:49:39.909Z,101462.19
2022-08-01T00:52:07.707Z,101467.34
2022-08-01T00:54:35.071Z,101460.22
2022-08-01T00:57:02.013Z,101457.88
2022-08-01T00:59:29.253Z,101450.16
2022-08-01T01:01:56.135Z,101464.06
2022-08-01T01:04:23.285Z,101456.78
2022-08-01T01:06:58.668Z,101463.66
2022-08-01T01:09:36.068Z,101459.56
2022-08-01T01:12:09.934Z,101454.41
2022-08-01T01:14:47.578Z,101450.19
2022-08-01T01:17:17.524Z,101459.94
2022-08-01T01:20:00.817Z,101454.69
2022-08-01T01:22:47.201Z,101458.06
2022-08-01T01:25:33.707Z,101455.09
2022-08-01T01:28:09.704Z,101455.94
2022-08-01T01:30:39.992Z,101460.72
2022-08-01T01:33:10.892Z,101454.41
2022-08-01T01:35:52.239Z,101454.72
2022-08-01T01:38:22.944Z,101457.50
2022-08-01T01:40:52.999Z,101457.47
2022-08-01T01:43:21.549Z,101451.41
2022-08-01T01:45:58.099Z,101449.44
2022-08-01T01:48:26.167Z,101457.88
2022-08-01T01:50:53.698Z,101458.78
2022-08-01T01:53:23.463Z,101469.84
2022-08-01T01:55:54.543Z,101461.81
2022-08-01T01:58:23.390Z,101452.06
2022-08-01T02:00:52.460Z,101466.31
2022-08-01T02:03:22.335Z,101457.47
2022-08-01T02:05:50.471Z,101454.94
2022-08-01T02:08:18.479Z,101462.22
2022-08-01T02:11:06.926Z,101465.09
2022-08-01T02:13:37.405Z,101459.13
2022-08-01T02:16:05.271Z,101461.16
2022-08-01T02:18:33.978Z,101471.25
2022-08-01T02:21:05.038Z,101470.41
2022-08-01T02:23:34.911Z,101466.38
2022-08-01T02:26:10.895Z,101462.63
2022-08-01T02:28:44.539Z,101462.94
2022-08-01T02:31:17.852Z,101459.28
2022-08-01T02:33:49.106Z,101452.44
2022-08-01T02:36:31.245Z,101452.88
2022-08-01T02:39:01.641Z,101444.00
2022-08-01T02:41:31.334Z,101459.03
2022-08-01T02:44:02.864Z,101450.06
2022-08-01T02:46:34.365Z,101458.09
2022-08-01T02:49:05.029Z,101455.97
2022-08-01T02:51:32.903Z,101445.91
2022-08-01T02:54:03.732Z,101456.41
2022-08-01T02:56:35.882Z,101448.28
2022-08-01T02:59:06.347Z,101450.38
2022-08-01T03:01:35.550Z,101454.81
2022-08-01T03:04:06.366Z,101449.16
2022-08-01T03:06:34.249Z,101451.94
2022-08-01T03:09:03.833Z,101451.88
2022-08-01T03:11:31.706Z,101457.28
2022-08-01T03:14:01.687Z,101445.97
2022-08-01T03:16:32.480Z,101459.41
2022-08-01T03:19:01.577Z,101454.81
2022-08-01T03:21:32.615Z,101452.88
2022-08-01T03:24:02.386Z,101458.53
2022-08-01T03:26:32.045Z,101458.84
2022-08-01T03:29:03.168Z,101464.56
2022-08-01T03:31:31.409Z,101462.06
2022-08-01T03:33:59.904Z,101460.06
2022-08-01T03:36:34.643Z,101462.13
2022-08-01T03:39:04.702Z,101466.13
2022-08-01T03:41:38.721Z,101471.13
2022-08-01T03:44:11.355Z,101459.16
2022-08-01T03:46:43.961Z,101464.19
2022-08-01T03:49:15.812Z,101460.47
2022-08-01T03:51:46.195Z,101465.22
2022-08-01T03:54:14.615Z,101466.38
2022-08-01T03:56:43.654Z,101461.03
2022-08-01T03:59:11.361Z,101465.41
2022-08-01T04:01:38.818Z,101462.34
2022-08-01T04:04:06.823Z,101462.13
2022-08-01T04:06:33.673Z,101467.78
2022-08-01T04:09:01.929Z,101470.63
2022-08-01T04:11:29.204Z,101461.22
2022-08-01T04:13:56.852Z,101461.84
2022-08-01T04:16:24.888Z,101463.22
2022-08-01T04:18:51.671Z,101463.16
2022-08-01T04:21:21.671Z,101459.28
2022-08-01T04:23:51.565Z,101460.84
2022-08-01T04:26:24.227Z,101461.81
2022-08-01T04:28:53.407Z,101454.50
2022-08-01T04:31:20.786Z,101464.88
2022-08-01T04:33:52.111Z,101469.59
2022-08-01T04:36:24.306Z,101470.88
2022-08-01T04:38:55.788Z,101462.50
2022-08-01T04:41:24.951Z,101456.09
2022-08-01T04:43:53.083Z,101465.38
2022-08-01T04:46:20.393Z,101450.72
2022-08-01T04:48:48.430Z,101475.50
2022-08-01T04:51:16.481Z,101481.44
2022-08-01T04:53:43.978Z,101483.56
2022-08-01T04:56:14.363Z,101484.72
2022-08-01T04:58:42.986Z,101490.25
2022-08-01T05:01:10.591Z,101477.34
2022-08-01T05:03:39.129Z,101489.03
2022-08-01T05:06:06.638Z,101484.63
2022-08-01T05:08:33.520Z,101487.97
2022-08-01T05:11:00.468Z,101487.88
2022-08-01T05:13:27.293Z,101499.19
2022-08-01T05:15:55.490Z,101504.03
2022-08-01T05:18:28.200Z,101486.41
2022-08-01T05:20:55.429Z,101489.28
2022-08-01T05:23:36.557Z,101487.31
2022-08-01T05:26:09.596Z,101487.44
2022-08-01T05:28:37.150Z,101490.47
2022-08-01T05:31:05.325Z,101489.78
2022-08-01T05:33:32.170Z,101489.34
2022-08-01T05:35:59.059Z,101491.34
2022-08-01T05:38:25.933Z,101507.25
2022-08-01T05:40:52.802Z,101507.97
2022-08-01T05:43:19.736Z,101513.19
2022-08-01T05:45:47.057Z,101520.44
2022-08-01T05:48:15.361Z,101514.19
2022-08-01T05:50:42.250Z,101525.19
2022-08-01T05:53:09.095Z,101529.59
2022-08-01T05:55:36.219Z,101529.28
2022-08-01T05:58:03.370Z,101534.72
2022-08-01T06:00:30.328Z,101537.00
2022-08-01T06:02:57.109Z,101536.28
2022-08-01T06:05:25.300Z,101528.25
2022-08-01T06:07:52.127Z,101539.78
2022-08-01T06:10:18.935Z,101537.44
2022-08-01T06:12:45.902Z,101547.50
2022-08-01T06:15:13.118Z,101538.13
2022-08-01T06:17:40.672Z,101533.53
2022-08-01T06:20:08.727Z,101549.88
2022-08-01T06:22:37.085Z,101535.34
2022-08-01T06:25:06.185Z,101549.09
2022-08-01T06:27:36.604Z,101556.91
2022-08-01T06:30:04.050Z,101558.66
2022-08-01T06:32:32.054Z,101562.81
2022-08-01T06:34:58.880Z,101558.09
2022-08-01T06:37:29.849Z,101549.22
2022-08-01T06:40:01.034Z,101550.31
2022-08-01T06:42:27.806Z,101553.38
2022-08-01T06:44:54.585Z,101553.59
2022-08-01T06:47:21.517Z,101555.16
2022-08-01T06:49:48.266Z,101553.06
2022-08-01T06:52:15.034Z,101551.88
2022-08-01T06:54:41.907Z,101566.00
2022-08-01T06:57:10.107Z,101556.75
2022-08-01T06:59:37.719Z,101553.84
2022-08-01T07:02:05.237Z,101552.94
2022-08-01T07:04:32.583Z,101566.91
2022-08-01T07:06:59.375Z,101562.50
2022-08-01T07:09:26.371Z,101559.91
2022-08-01T07:11:53.863Z,101567.59
2022-08-01T07:14:22.444Z,101562.22
2022-08-01T07:16:49.315Z,101568.34
2022-08-01T07:19:16.339Z,101570.28
2022-08-01T07:21:43.124Z,101573.59
2022-08-01T07:24:14.571Z,101578.13
2022-08-01T07:26:52.233Z,101580.53
2022-08-01T07:29:23.604Z,101570.38
2022-08-01T07:31:50.392Z,101572.06
2022-08-01T07:34:18.881Z,101567.91
2022-08-01T07:36:47.604Z,101569.50
2022-08-01T07:39:20.229Z,101568.09
2022-08-01T07:42:05.440Z,101578.09
2022-08-01T07:44:57.178Z,101573.94
2022-08-01T07:47:29.829Z,101571.91
2022-08-01T07:50:03.235Z,101576.06
2022-08-01T07:52:45.690Z,101588.25
2022-08-01T07:56:06.103Z,101592.47
2022-08-01T07:58:33.133Z,101588.31
2022-08-01T08:01:17.546Z,101591.19
2022-08-01T08:03:44.514Z,101594.03
2022-08-01T08:06:11.332Z,101591.97
2022-08-01T08:08:38.163Z,101598.91
2022-08-01T08:11:06.390Z,101597.28
2022-08-01T08:13:33.279Z,101590.78
2022-08-01T08:16:01.007Z,101596.91
2022-08-01T08:18:30.921Z,101595.59
2022-08-01T08:20:59.821Z,101597.09
2022-08-01T08:23:49.367Z,101590.47
2022-08-01T08:26:17.573Z,101593.94
2022-08-01T08:28:45.368Z,101598.84
2022-08-01T08:31:24.627Z,101598.06
2022-08-01T08:33:54.141Z,101596.75
2022-08-01T08:36:20.942Z,101594.78
2022-08-01T08:38:53.465Z,101593.56
2022-08-01T08:41:26.078Z,101597.28
2022-08-01T08:43:54.671Z,101606.66
2022-08-01T08:46:28.374Z,101608.03
2022-08-01T08:48:58.871Z,101611.34
2022-08-01T08:51:31.052Z,101603.44
2022-08-01T08:53:59.941Z,101604.66
2022-08-01T08:56:31.209Z,101602.31
2022-08-01T08:58:58.622Z,101601.69
2022-08-01T09:01:25.443Z,101612.44
2022-08-01T09:03:52.352Z,101606.91
2022-08-01T09:06:20.993Z,101609.47
2022-08-01T09:08:47.877Z,101608.94
2022-08-01T09:11:23.103Z,101607.81
2022-08-01T09:14:06.326Z,101619.84
2022-08-01T09:16:33.411Z,101617.94
2022-08-01T09:19:16.013Z,101620.19
2022-08-01T09:22:04.450Z,101627.69
2022-08-01T09:24:32.901Z,101623.94
2022-08-01T09:27:00.428Z,101625.72
2022-08-01T09:29:38.009Z,101634.13
2022-08-01T09:32:08.245Z,101630.13
2022-08-01T09:34:40.960Z,101634.16
2022-08-01T09:37:09.400Z,101643.19
2022-08-01T09:39:38.667Z,101639.03
2022-08-01T09:42:21.094Z,101635.81
2022-08-01T09:44:56.613Z,101638.09
2022-08-01T09:47:38.851Z,101642.16
2022-08-01T09:50:10.691Z,101644.13
2022-08-01T09:52:41.019Z,101653.84
2022-08-01T09:55:09.109Z,101642.94
2022-08-01T09:57:35.917Z,101636.41
2022-08-01T10:00:04.728Z,101638.56
2022-08-01T10:02:34.735Z,101634.88
2022-08-01T10:05:03.615Z,101642.66
2022-08-01T10:07:43.406Z,101640.84
2022-08-01T10:10:15.117Z,101645.25
2022-08-01T10:12:45.328Z,101638.25
2022-08-01T10:15:15.780Z,101641.78
2022-08-01T10:17:54.446Z,101634.28
2022-08-01T10:20:30.094Z,101642.81
2022-08-01T10:23:00.478Z,101643.41
2022-08-01T10:25:41.910Z,101645.13
2022-08-01T10:28:17.860Z,101646.41
2022-08-01T10:30:49.543Z,101653.56
2022-08-01T10:33:20.089Z,101646.53
2022-08-01T10:36:08.481Z,101651.97
2022-08-01T10:38:37.179Z,101645.00
2022-08-01T10:41:08.911Z,101649.94
2022-08-01T10:43:36.527Z,101638.88
2022-08-01T10:46:04.251Z,101648.00
2022-08-01T10:48:43.463Z,101640.09
2022-08-01T10:51:18.264Z,101635.94
2022-08-01T10:53:51.009Z,101633.22
2022-08-01T10:56:26.967Z,101636.16
2022-08-01T10:59:06.088Z,101633.91
2022-08-01T11:01:37.496Z,101640.84
2022-08-01T11:04:16.000Z,101649.38
2022-08-01T11:06:53.433Z,101648.41
2022-08-01T11:09:37.282Z,101637.22
2022-08-01T11:12:13.603Z,101645.13
2022-08-01T11:15:29.037Z,101635.69
2022-08-01T11:18:00.330Z,101640.03
2022-08-01T11:20:31.583Z,101642.94
2022-08-01T11:23:29.033Z,101638.81
2022-08-01T11:26:10.851Z,101642.59
2022-08-01T11:28:47.063Z,101631.59
2022-08-01T11:31:31.066Z,101631.06
2022-08-01T11:34:04.995Z,101635.09
2022-08-01T11:36:57.436Z,101637.19
2022-08-01T11:39:19.173Z,101640.91
2022-08-01T11:41:48.925Z,101639.69
2022-08-01T11:44:26.220Z,101647.88
2022-08-01T11:47:02.358Z,101635.56
2022-08-01T11:49:49.587Z,101633.88
2022-08-01T11:52:20.436Z,101632.50
2022-08-01T11:54:49.712Z,101632.00
2022-08-01T11:57:20.374Z,101622.72
2022-08-01T12:00:03.213Z,101633.75
2022-08-01T12:02:33.575Z,101628.84
2022-08-01T12:05:02.335Z,101626.63
2022-08-01T12:07:31.494Z,101628.41
2022-08-01T12:10:01.595Z,101631.28
2022-08-01T12:12:29.372Z,101631.91
2022-08-01T12:14:58.787Z,101634.19
2022-08-01T12:17:30.538Z,101633.81
2022-08-01T12:19:57.781Z,101624.63
2022-08-01T12:22:26.142Z,101621.78
2022-08-01T12:24:53.282Z,101631.59
2022-08-01T12:27:28.724Z,101625.06
2022-08-01T12:29:57.716Z,101636.00
2022-08-01T12:32:33.815Z,101631.66
2022-08-01T12:35:05.705Z,101629.50
2022-08-01T12:37:35.547Z,101631.25
2022-08-01T12:40:03.779Z,101620.69
2022-08-01T12:42:30.900Z,101618.09
2022-08-01T12:44:59.192Z,101622.88
2022-08-01T12:47:26.073Z,101634.75
2022-08-01T12:49:53.006Z,101618.66
2022-08-01T12:52:23.283Z,101630.53
2022-08-01T12:55:10.086Z,101622.88
2022-08-01T12:57:38.643Z,101631.41
2022-08-01T13:00:16.920Z,101631.94
2022-08-01T13:02:45.733Z,101632.34
2022-08-01T13:05:13.236Z,101627.75
2022-08-01T13:07:45.944Z,101629.19
2022-08-01T13:10:14.349Z,101628.25
2022-08-01T13:12:51.485Z,101628.88
2022-08-01T13:15:26.463Z,101622.16
2022-08-01T13:17:54.558Z,101617.91
2022-08-01T13:20:29.955Z,101624.88
2022-08-01T13:23:10.446Z,101624.47
2022-08-01T13:25:53.657Z,101611.31
2022-08-01T13:28:22.848Z,101604.25
2022-08-01T13:30:56.308Z,101608.47
2022-08-01T13:33:23.786Z,101614.94
2022-08-01T13:35:52.219Z,101624.59
2022-08-01T13:38:19.045Z,101614.19
2022-08-01T13:40:45.894Z,101609.16
2022-08-01T13:43:12.769Z,101608.78
2022-08-01T13:45:40.803Z,101606.28
2022-08-01T13:48:18.695Z,101600.06
2022-08-01T13:50:53.395Z,101596.06
2022-08-01T13:53:29.451Z,101595.09
2022-08-01T13:55:56.343Z,101597.25
2022-08-01T13:58:23.196Z,101598.69
2022-08-01T14:00:50.199Z,101597.88
2022-08-01T14:03:18.427Z,101599.50
2022-08-01T14:05:45.589Z,101594.53
2022-08-01T14:08:12.973Z,101585.63
2022-08-01T14:10:41.576Z,101593.22
2022-08-01T14:13:11.732Z,101584.31
2022-08-01T14:15:40.030Z,101580.88
2022-08-01T14:18:07.962Z,101593.16
2022-08-01T14:20:39.298Z,101599.91
2022-08-01T14:23:09.002Z,101589.34
2022-08-01T14:26:03.347Z,101604.59
2022-08-01T14:28:25.400Z,101600.19
2022-08-01T14:30:52.191Z,101598.63
2022-08-01T14:33:18.975Z,101600.16
2022-08-01T14:36:05.877Z,101598.56
2022-08-01T14:38:34.538Z,101607.00
2022-08-01T14:41:01.764Z,101594.81
2022-08-01T14:43:33.050Z,101591.66
2022-08-01T14:46:00.499Z,101591.09
2022-08-01T14:48:27.444Z,101590.28
2022-08-01T14:50:55.970Z,101594.56
2022-08-01T14:53:22.853Z,101582.84
2022-08-01T14:55:49.730Z,101584.41
2022-08-01T14:58:16.524Z,101590.78
2022-08-01T15:00:44.014Z,101587.19
2022-08-01T15:03:10.847Z,101583.06
2022-08-01T15:05:38.147Z,101590.22
2022-08-01T15:08:07.262Z,101582.63
2022-08-01T15:10:34.128Z,101576.19
2022-08-01T15:13:02.522Z,101585.09
2022-08-01T15:15:29.646Z,101580.94
2022-08-01T15:17:56.625Z,101573.81
2022-08-01T15:20:23.849Z,101577.19
2022-08-01T15:22:50.660Z,101570.19
2022-08-01T15:25:19.164Z,101567.78
2022-08-01T15:27:45.996Z,101566.06
2022-08-01T15:30:13.122Z,101569.47
2022-08-01T15:32:40.059Z,101562.25
2022-08-01T15:35:08.401Z,101564.13
2022-08-01T15:37:39.565Z,101563.28
2022-08-01T15:40:10.241Z,101567.13
2022-08-01T15:42:39.850Z,101557.28
2022-08-01T15:45:10.683Z,101563.41
2022-08-01T15:47:40.211Z,101563.63
2022-08-01T15:50:08.013Z,101556.06
2022-08-01T15:52:34.870Z,101559.47
2022-08-01T15:55:01.789Z,101565.00
2022-08-01T15:57:28.694Z,101560.34
2022-08-01T16:00:15.604Z,101551.16
2022-08-01T16:02:42.453Z,101551.94
2022-08-01T16:05:10.571Z,101544.22
2022-08-01T16:07:59.911Z,101556.56
2022-08-01T16:10:26.613Z,101557.75
2022-08-01T16:12:53.379Z,101554.88
2022-08-01T16:15:31.312Z,101548.34
2022-08-01T16:18:03.912Z,101557.47
2022-08-01T16:20:30.682Z,101543.88
2022-08-01T16:22:58.715Z,101549.84
2022-08-01T16:25:25.478Z,101549.75
2022-08-01T16:27:52.741Z,101552.28
2022-08-01T16:30:21.153Z,101553.75
2022-08-01T16:32:51.841Z,101553.47
2022-08-01T16:35:21.573Z,101553.03
2022-08-01T16:37:51.286Z,101543.41
2022-08-01T16:40:18.113Z,101539.97
2022-08-01T16:42:45.657Z,101547.41
2022-08-01T16:45:14.546Z,101546.19
2022-08-01T16:47:43.732Z,101530.38
2022-08-01T16:50:10.702Z,101532.53
2022-08-01T16:52:41.729Z,101533.47
2022-08-01T16:55:10.802Z,101534.03
2022-08-01T16:57:38.565Z,101539.00
2022-08-01T17:00:07.213Z,101544.22
2022-08-01T17:02:34.279Z,101533.06
2022-08-01T17:05:08.639Z,101530.72
2022-08-01T17:07:39.760Z,101533.75
2022-08-01T17:10:07.403Z,101532.25
2022-08-01T17:12:35.490Z,101519.19
2022-08-01T17:15:02.672Z,101530.09
2022-08-01T17:17:34.457Z,101521.16
2022-08-01T17:20:02.917Z,101528.66
2022-08-01T17:22:30.105Z,101518.88
2022-08-01T17:24:56.884Z,101524.63
2022-08-01T17:27:23.758Z,101519.47
2022-08-01T17:29:50.875Z,101522.63
2022-08-01T17:32:17.764Z,101524.19
2022-08-01T17:34:44.704Z,101520.28
2022-08-01T17:37:15.441Z,101524.81
2022-08-01T17:39:50.407Z,101521.78
2022-08-01T17:42:17.217Z,101525.41
2022-08-01T17:44:48.861Z,101519.66
2022-08-01T17:47:34.444Z,101517.19
2022-08-01T17:50:05.158Z,101524.22
2022-08-01T17:52:34.342Z,101518.16
2022-08-01T17:55:02.268Z,101512.53
2022-08-01T17:57:29.568Z,101514.63
2022-08-01T17:59:58.029Z,101507.34
2022-08-01T18:02:25.685Z,101510.69
2022-08-01T18:04:56.571Z,101509.03
2022-08-01T18:08:01.647Z,101515.19
2022-08-01T18:10:21.069Z,101520.56
2022-08-01T18:12:50.629Z,101505.13
2022-08-01T18:15:17.543Z,101523.06
2022-08-01T18:17:48.119Z,101517.41
2022-08-01T18:20:14.948Z,101523.13
2022-08-01T18:22:43.418Z,101525.19
2022-08-01T18:25:10.592Z,101517.09
2022-08-01T18:28:22.450Z,101524.81
2022-08-01T18:30:24.954Z,101531.75
2022-08-01T18:32:56.162Z,101528.09
2022-08-01T18:35:25.638Z,101532.19
2022-08-01T18:38:12.461Z,101533.81
2022-08-01T18:40:40.664Z,101537.88
2022-08-01T18:43:07.818Z,101532.19
2022-08-01T18:45:37.424Z,101535.44
2022-08-01T18:48:07.066Z,101526.50
2022-08-01T18:50:34.207Z,101542.34
2022-08-01T18:53:01.113Z,101539.44
2022-08-01T18:55:29.415Z,101537.00
2022-08-01T18:57:56.978Z,101532.09
2022-08-01T19:00:24.032Z,101528.84
2022-08-01T19:02:51.102Z,101540.66
2022-08-01T19:05:19.413Z,101538.19
2022-08-01T19:08:06.466Z,101528.81
2022-08-01T19:10:35.935Z,101536.53
2022-08-01T19:13:03.080Z,101540.94
2022-08-01T19:15:30.101Z,101542.13
2022-08-01T19:17:57.048Z,101539.25
2022-08-01T19:20:24.055Z,101540.38
2022-08-01T19:22:50.876Z,101539.50
2022-08-01T19:25:17.860Z,101544.75
2022-08-01T19:27:48.278Z,101542.25
2022-08-01T19:30:17.074Z,101545.50
2022-08-01T19:32:45.167Z,101547.50
2022-08-01T19:35:14.013Z,101547.06
2022-08-01T19:37:52.561Z,101545.78
2022-08-01T19:40:27.752Z,101546.19
2022-08-01T19:42:57.517Z,101545.75
2022-08-01T19:45:28.153Z,101553.34
2022-08-01T19:47:57.141Z,101554.47
2022-08-01T19:50:24.567Z,101551.50
2022-08-01T19:52:52.957Z,101553.03
2022-08-01T19:55:20.800Z,101551.28
2022-08-01T19:58:10.657Z,101550.84
2022-08-01T20:00:38.698Z,101539.06
2022-08-01T20:03:07.461Z,101543.03
2022-08-01T20:05:36.375Z,101545.38
2022-08-01T20:08:03.441Z,101548.41
2022-08-01T20:10:32.039Z,101554.78
2022-08-01T20:12:59.062Z,101556.78
2022-08-01T20:15:26.136Z,101556.31
2022-08-01T20:17:58.009Z,101553.78
2022-08-01T20:20:24.976Z,101555.75
2022-08-01T20:22:55.719Z,101554.06
2022-08-01T20:25:27.997Z,101554.75
2022-08-01T20:27:56.739Z,101553.31
2022-08-01T20:30:26.263Z,101558.09
2022-08-01T20:32:58.045Z,101560.44
2022-08-01T20:35:51.852Z,101560.25
2022-08-01T20:38:17.396Z,101553.94
2022-08-01T20:40:45.654Z,101557.53
2022-08-01T20:43:13.868Z,101558.28
2022-08-01T20:45:42.393Z,101560.34
2022-08-01T20:48:11.726Z,101560.66
2022-08-01T20:50:57.379Z,101552.94
2022-08-01T20:53:24.527Z,101556.94
2022-08-01T20:56:00.826Z,101568.44
2022-08-01T20:58:34.127Z,101560.66
2022-08-01T21:01:03.385Z,101560.53
2022-08-01T21:03:45.520Z,101560.16
2022-08-01T21:06:14.774Z,101558.91
2022-08-01T21:08:44.215Z,101562.50
2022-08-01T21:11:16.386Z,101572.38
2022-08-01T21:13:48.256Z,101564.81
2022-08-01T21:16:24.366Z,101569.56
2022-08-01T21:21:50.763Z,101573.13
2022-08-01T21:24:19.415Z,101572.38
2022-08-01T21:26:46.709Z,101574.47
2022-08-01T21:29:14.338Z,101571.25
2022-08-01T21:31:42.389Z,101569.06
2022-08-01T21:34:12.229Z,101565.38
2022-08-01T21:36:40.091Z,101567.03
2022-08-01T21:39:07.664Z,101570.41
2022-08-01T21:42:05.168Z,101581.72
2022-08-01T21:44:28.640Z,101579.34
2022-08-01T21:46:58.512Z,101571.31
2022-08-01T21:49:26.955Z,101572.88
2022-08-01T21:51:59.944Z,101566.19
2022-08-01T21:54:32.593Z,101563.16
2022-08-01T21:57:07.127Z,101566.84
2022-08-01T21:59:44.509Z,101567.22
2022-08-01T22:02:17.800Z,101560.81
2022-08-01T22:04:52.084Z,101562.00
2022-08-01T22:07:19.411Z,101562.97
2022-08-01T22:09:49.321Z,101564.41
2022-08-01T22:12:18.641Z,101567.16
2022-08-01T22:14:48.755Z,101574.84
2022-08-01T22:17:22.583Z,101568.00
2022-08-01T22:19:54.051Z,101571.22
2022-08-01T22:22:44.744Z,101579.44
2022-08-01T22:25:10.896Z,101575.88
2022-08-01T22:28:03.203Z,101572.44
2022-08-01T22:30:29.340Z,101567.75
2022-08-01T22:33:15.690Z,101572.84
2022-08-01T22:35:46.617Z,101555.16
2022-08-01T22:38:14.013Z,101555.03
2022-08-01T22:40:48.038Z,101553.75
2022-08-01T22:43:24.143Z,101544.56
2022-08-01T22:46:00.161Z,101549.00
2022-08-01T22:48:36.548Z,101545.19
2022-08-01T22:51:09.723Z,101543.47
2022-08-01T22:53:43.041Z,101545.47
2022-08-01T22:56:12.972Z,101549.84
2022-08-01T22:58:41.370Z,101540.28
2022-08-01T23:01:12.842Z,101537.09
2022-08-01T23:03:50.448Z,101538.44
2022-08-01T23:06:22.893Z,101533.25
2022-08-01T23:08:50.855Z,101544.16
2022-08-01T23:11:20.675Z,101541.03
2022-08-01T23:13:47.461Z,101533.47
2022-08-01T23:16:17.509Z,101532.72
2022-08-01T23:18:46.140Z,101543.75
2022-08-01T23:21:13.356Z,101540.91
2022-08-01T23:23:42.714Z,101535.91
2022-08-01T23:26:10.615Z,101539.44
2022-08-01T23:28:39.558Z,101538.09
2022-08-01T23:31:07.059Z,101541.31
2022-08-01T23:33:33.925Z,101535.28
2022-08-01T23:36:00.899Z,101535.66
2022-08-01T23:38:27.731Z,101528.47
2022-08-01T23:40:55.895Z,101536.38
2022-08-01T23:43:22.734Z,101531.56
2022-08-01T23:46:04.117Z,101534.63
2022-08-01T23:48:35.904Z,101533.06
2022-08-01T23:51:04.186Z,101541.28
2022-08-01T23:53:31.587Z,101546.28
2022-08-01T23:56:02.432Z,101545.28
2022-08-01T23:58:30.094Z,101541.13
